Terminal Aerodrome Forecast
Issued by NWS

Home | Current Version | Previous Version | Text Only | Print | Product List | Glossary On
Versions: 1 2 3 4 5 6 7 8 9 10 11 12 13
000
FTUS43 KILX 190500
TAFDEC
TAF
KDEC 190520Z 1906/2006 07012KT P6SM SCT250
     FM191600 13012KT P6SM SCT250
     FM200000 12007KT P6SM SCT250=

USA.gov is the U.S. government's official web portal to all federal, state and local government web resources and services.